Time;durP1;ratioP1;P1;durP2;ratioP2;P2;SDS_P1;SDS_P2;PMS_P1;PMS_P2;Temp;Humidity;BMP_temperature;BMP_pressure;BME280_temperature;BME280_humidity;BME280_pressure;Samples;Min_cycle;Max_cycle;Signal;HPM_P1;HPM_P2
2021/10/27 02:45:14;;;;;;;44.65;24.30;;;5.90;95.70;;;;;;5767883;24;20026;31
2021/10/27 02:47:42;;;;;;;45.22;25.38;;;5.90;95.80;;;;;;4770089;30;20060;-77
2021/10/27 02:50:09;;;;;;;43.92;25.05;;;5.80;95.90;;;;;;4762747;30;20132;-78
2021/10/27 02:52:34;;;;;;;41.05;23.45;;;5.90;95.90;;;;;;4770375;29;20025;-78
2021/10/27 02:55:00;;;;;;;51.33;26.58;;;5.80;95.80;;;;;;4775796;30;20081;-78
2021/10/27 02:57:26;;;;;;;41.70;24.73;;;5.90;95.80;;;;;;4762603;30;20020;-78
2021/10/27 02:59:52;;;;;;;54.60;27.70;;;5.90;95.70;;;;;;4761478;30;20107;-78
2021/10/27 03:02:18;;;;;;;48.53;24.83;;;5.80;95.70;;;;;;4761476;30;20034;-78
2021/10/27 03:04:43;;;;;;;41.30;25.33;;;5.80;95.70;;;;;;4761512;30;20067;-78
2021/10/27 03:07:09;;;;;;;46.35;25.33;;;5.80;95.70;;;;;;4770130;29;20032;-78
2021/10/27 03:09:35;;;;;;;39.85;24.92;;;5.80;95.80;;;;;;4766307;29;20048;-78
2021/10/27 03:12:02;;;;;;;47.22;26.75;;;5.80;95.70;;;;;;4764472;30;20036;-78
2021/10/27 03:14:28;;;;;;;49.00;26.10;;;5.80;95.70;;;;;;4754322;30;20036;-78
2021/10/27 03:16:54;;;;;;;43.72;26.33;;;5.80;96.00;;;;;;4775838;29;20048;-78
2021/10/27 03:19:20;;;;;;;47.78;27.38;;;5.80;96.10;;;;;;4760979;30;20032;-78
2021/10/27 03:21:47;;;;;;;48.78;25.77;;;5.70;95.90;;;;;;4760681;30;20032;-78
2021/10/27 03:24:13;;;;;;;56.65;26.85;;;5.70;96.20;;;;;;4769992;29;20039;-78
2021/10/27 03:26:39;;;;;;;37.58;23.60;;;5.70;96.10;;;;;;4769901;30;20343;-78
2021/10/27 03:29:04;;;;;;;46.08;26.17;;;5.70;96.20;;;;;;4761082;29;20028;-78
2021/10/27 03:31:30;;;;;;;52.55;28.42;;;5.70;96.20;;;;;;4758581;30;20028;-78
2021/10/27 03:33:57;;;;;;;47.80;28.45;;;5.70;96.20;;;;;;4760823;30;20079;-78
2021/10/27 03:36:24;;;;;;;42.80;24.58;;;5.70;96.20;;;;;;4754968;30;20087;-78
2021/10/27 03:38:50;;;;;;;43.88;25.35;;;5.70;96.10;;;;;;4775399;30;20280;-78
2021/10/27 03:41:16;;;;;;;34.28;22.80;;;5.60;95.90;;;;;;4769371;30;20062;-78
2021/10/27 03:43:43;;;;;;;47.17;28.20;;;5.60;95.80;;;;;;4775609;29;20036;-78
2021/10/27 03:46:10;;;;;;;52.42;26.13;;;5.60;95.80;;;;;;4775505;29;20101;-78
2021/10/27 03:48:36;;;;;;;41.97;23.80;;;5.60;95.70;;;;;;4775831;29;20052;-78
2021/10/27 03:51:02;;;;;;;44.28;25.35;;;5.60;95.70;;;;;;4740177;30;20040;-78
2021/10/27 03:53:28;;;;;;;39.30;23.00;;;5.60;95.70;;;;;;4760778;30;20040;-78
2021/10/27 03:55:55;;;;;;;40.38;26.08;;;5.60;95.70;;;;;;4760883;30;20107;-78
2021/10/27 03:58:21;;;;;;;41.60;23.63;;;5.60;95.70;;;;;;4760843;30;20231;-78
2021/10/27 04:00:46;;;;;;;37.60;22.55;;;5.50;95.90;;;;;;4740000;30;20052;-78
2021/10/27 04:03:18;;;;;;;44.67;25.25;;;5.50;95.70;;;;;;4760538;30;20047;-78
2021/10/27 04:05:45;;;;;;;42.47;23.27;;;5.50;95.70;;;;;;4760956;30;20044;-78
2021/10/27 04:08:10;;;;;;;47.75;25.35;;;5.50;95.90;;;;;;4739889;30;20040;-78
2021/10/27 04:10:36;;;;;;;46.53;25.08;;;5.50;95.50;;;;;;4760954;30;20040;-78
2021/10/27 04:13:02;;;;;;;39.03;23.30;;;5.50;95.50;;;;;;4760839;30;20032;-78
2021/10/27 04:15:28;;;;;;;40.83;24.77;;;5.40;95.40;;;;;;4734123;30;20120;-78
2021/10/27 04:17:54;;;;;;;43.45;26.80;;;5.40;95.50;;;;;;4745962;30;20036;-79
2021/10/27 04:20:20;;;;;;;40.75;24.80;;;5.40;95.60;;;;;;4760656;30;20099;-78
2021/10/27 04:22:46;;;;;;;44.03;25.20;;;5.40;95.70;;;;;;4760641;30;20031;-78
2021/10/27 04:25:12;;;;;;;37.83;21.37;;;5.40;95.50;;;;;;4760697;30;20033;-78
2021/10/27 04:27:39;;;;;;;47.67;27.33;;;5.40;95.50;;;;;;4775324;29;20024;-78
2021/10/27 04:30:07;;;;;;;42.45;25.00;;;5.40;95.50;;;;;;4760604;30;20041;-78
2021/10/27 04:32:33;;;;;;;45.47;25.30;;;5.30;95.60;;;;;;4761546;30;20032;-78
2021/10/27 04:34:58;;;;;;;56.22;30.15;;;5.30;95.50;;;;;;4739991;30;20284;-78
2021/10/27 04:37:26;;;;;;;49.22;27.40;;;5.30;95.40;;;;;;4739776;30;20387;-78
2021/10/27 04:39:52;;;;;;;48.78;26.40;;;5.30;95.50;;;;;;4733973;30;20036;-78
2021/10/27 04:42:18;;;;;;;50.03;25.08;;;5.30;95.40;;;;;;4766285;30;20089;-78
2021/10/27 04:44:43;;;;;;;46.75;25.90;;;5.20;95.60;;;;;;4742939;30;20033;-78
2021/10/27 04:47:09;;;;;;;47.50;27.92;;;5.20;95.90;;;;;;4769047;30;20052;-78
2021/10/27 04:49:35;;;;;;;46.30;26.10;;;5.10;95.80;;;;;;4757548;30;20041;-78
2021/10/27 04:52:01;;;;;;;46.17;25.98;;;5.10;95.70;;;;;;4769697;30;20028;-78
2021/10/27 04:54:27;;;;;;;46.00;25.75;;;5.10;95.70;;;;;;4760400;30;20054;-78
2021/10/27 04:56:52;;;;;;;60.45;30.55;;;5.10;95.70;;;;;;4760154;30;20043;-78
2021/10/27 04:59:18;;;;;;;42.97;23.42;;;5.10;95.80;;;;;;4760317;30;20032;-78
2021/10/27 05:01:47;;;;;;;44.20;24.52;;;5.10;95.80;;;;;;4760217;30;20032;-77
2021/10/27 05:04:15;;;;;;;51.70;26.38;;;5.10;95.70;;;;;;4760356;30;20028;-78
2021/10/27 05:06:42;;;;;;;40.63;24.08;;;5.10;95.60;;;;;;4729382;30;20028;-79
2021/10/27 05:09:09;;;;;;;47.53;26.90;;;5.00;95.50;;;;;;4759304;30;20223;-79
2021/10/27 05:11:35;;;;;;;44.17;25.77;;;5.10;95.60;;;;;;4753383;30;20036;-79
2021/10/27 05:14:02;;;;;;;59.92;28.23;;;5.00;95.70;;;;;;4755499;30;20032;-79
2021/10/27 05:16:28;;;;;;;56.95;28.65;;;5.00;95.70;;;;;;4767960;30;20047;-79
2021/10/27 05:18:54;;;;;;;45.75;24.35;;;5.00;95.70;;;;;;4762918;30;20040;-79
2021/10/27 05:21:20;;;;;;;44.28;25.38;;;5.00;95.90;;;;;;4760850;30;20287;-79
2021/10/27 05:23:45;;;;;;;47.25;27.85;;;5.00;95.70;;;;;;4763321;30;20036;-78
2021/10/27 05:26:11;;;;;;;54.42;27.30;;;5.00;95.70;;;;;;4753650;30;20398;-78
2021/10/27 05:28:37;;;;;;;54.78;30.50;;;5.00;95.70;;;;;;4755036;30;20151;-78
2021/10/27 05:31:04;;;;;;;47.85;25.83;;;5.00;96.10;;;;;;4768108;30;20028;-78
2021/10/27 05:33:30;;;;;;;40.88;23.70;;;4.90;95.80;;;;;;4761504;30;20035;-78
2021/10/27 05:35:56;;;;;;;49.72;29.88;;;5.00;95.70;;;;;;4748425;30;20032;-79
2021/10/27 05:38:21;;;;;;;54.13;30.17;;;4.90;95.70;;;;;;4764071;30;20026;-78
2021/10/27 05:40:50;;;;;;;48.20;27.30;;;4.90;95.80;;;;;;4761096;30;20327;-79
2021/10/27 05:43:16;;;;;;;56.67;28.58;;;4.90;96.00;;;;;;4748002;30;20031;-78
2021/10/27 05:45:42;;;;;;;49.08;28.15;;;5.00;95.90;;;;;;4757958;30;20056;-78
2021/10/27 05:48:10;;;;;;;56.58;30.15;;;4.90;95.80;;;;;;4758922;30;20039;-78
2021/10/27 05:55:48;;;;;;;48.33;25.88;;;5.00;96.10;;;;;;4760531;30;20040;-78
2021/10/27 05:58:14;;;;;;;;;;;5.00;96.40;;;;;;4761307;30;20036;-78
2021/10/27 06:00:41;;;;;;;65.78;29.10;;;5.10;96.10;;;;;;4759200;30;20029;-78
2021/10/27 06:03:07;;;;;;;60.67;34.47;;;5.10;96.00;;;;;;4760385;30;20340;-78
2021/10/27 06:05:35;;;;;;;52.22;26.55;;;5.10;96.20;;;;;;4761279;30;20028;-78
2021/10/27 06:08:01;;;;;;;53.45;28.75;;;5.20;96.30;;;;;;4761001;30;20387;-78
2021/10/27 06:10:28;;;;;;;67.85;33.72;;;5.20;96.30;;;;;;4756133;30;20032;-78
2021/10/27 06:12:58;;;;;;;56.78;31.52;;;5.30;96.40;;;;;;4759006;30;20032;-78
2021/10/27 06:15:25;;;;;;;56.05;30.13;;;5.30;96.40;;;;;;4742500;30;20044;-77
2021/10/27 06:17:51;;;;;;;62.23;30.30;;;5.40;96.50;;;;;;4746733;30;20226;-78
2021/10/27 06:20:17;;;;;;;62.03;30.87;;;5.40;96.50;;;;;;4757272;30;20351;-78
2021/10/27 06:22:44;;;;;;;64.47;31.95;;;5.50;96.40;;;;;;4759909;30;20027;-78
2021/10/27 06:25:11;;;;;;;99.50;41.45;;;5.60;96.60;;;;;;4757871;30;20029;-78
2021/10/27 06:27:40;;;;;;;64.68;34.42;;;5.70;96.60;;;;;;4760259;30;20055;-78
2021/10/27 06:30:17;;;;;;;60.35;32.25;;;5.80;96.90;;;;;;4760167;30;20111;-79
2021/10/27 06:35:27;;;;;;;52.30;31.08;;;5.90;96.60;;;;;;4758207;30;20495;-79
2021/10/27 06:46:12;;;;;;;63.80;33.17;;;6.30;97.00;;;;;;4759085;30;20151;-78
2021/10/27 06:48:38;;;;;;;63.92;35.80;;;6.40;97.20;;;;;;4744726;30;20360;-79
2021/10/27 06:51:03;;;;;;;82.30;36.08;;;6.50;97.40;;;;;;4759365;30;20085;-78
2021/10/27 06:53:30;;;;;;;76.85;36.60;;;6.60;97.40;;;;;;4742004;30;20059;-78
2021/10/27 06:55:56;;;;;;;74.13;41.47;;;6.80;97.60;;;;;;4744462;30;20082;-78
2021/10/27 06:58:24;;;;;;;71.65;41.97;;;6.90;97.70;;;;;;4759221;30;20059;-78
2021/10/27 07:00:53;;;;;;;77.97;37.88;;;7.00;97.90;;;;;;4743307;30;20047;-78
2021/10/27 07:16:41;;;;;;;89.90;41.65;;;7.90;99.60;;;;;;4759882;30;20355;-77
2021/10/27 07:19:07;;;;;;;87.68;41.83;;;8.00;99.90;;;;;;4759561;30;20028;-77
2021/10/27 07:21:33;;;;;;;73.75;40.83;;;8.10;99.90;;;;;;4744361;30;20039;-77
2021/10/27 07:23:59;;;;;;;78.10;41.58;;;8.20;99.90;;;;;;4760900;30;20068;-77
2021/10/27 07:26:26;;;;;;;73.10;39.28;;;8.50;99.90;;;;;;4760500;30;20205;-77
2021/10/27 07:28:54;;;;;;;84.35;39.17;;;8.60;99.90;;;;;;4761617;30;20039;-77
2021/10/27 07:31:23;;;;;;;82.05;36.88;;;8.80;99.70;;;;;;4731470;30;20228;-77
2021/10/27 07:33:56;;;;;;;69.90;38.67;;;8.90;99.40;;;;;;4763502;30;20032;-76
2021/10/27 07:41:32;;;;;;;69.43;39.15;;;9.30;99.30;;;;;;4759244;30;20044;-76
2021/10/27 07:43:58;;;;;;;78.90;37.35;;;9.40;99.00;;;;;;4769124;29;20153;-76
2021/10/27 07:46:24;;;;;;;74.90;36.35;;;9.50;98.80;;;;;;4761109;30;20340;-76
2021/10/27 07:48:51;;;;;;;85.90;40.00;;;9.60;98.80;;;;;;4757441;30;20065;-76
2021/10/27 07:51:17;;;;;;;73.10;38.92;;;9.80;98.60;;;;;;4742988;30;20037;-76
2021/10/27 07:53:43;;;;;;;66.97;37.20;;;9.90;98.40;;;;;;4774465;30;20160;-76
2021/10/27 07:56:09;;;;;;;64.38;37.08;;;10.00;98.30;;;;;;4759774;30;20044;-77
2021/10/27 07:58:35;;;;;;;58.17;35.15;;;10.10;98.20;;;;;;4760197;30;20097;-76
2021/10/27 08:01:02;;;;;;;55.47;33.70;;;10.20;98.10;;;;;;4760910;30;20025;-76
2021/10/27 08:03:29;;;;;;;61.28;34.15;;;10.40;97.90;;;;;;4759486;30;20040;-76
2021/10/27 08:06:07;;;;;;;68.25;33.22;;;10.50;97.60;;;;;;4760387;30;20048;-77
2021/10/27 08:08:32;;;;;;;58.25;33.53;;;10.70;97.20;;;;;;4760009;30;20028;-77
2021/10/27 08:10:59;;;;;;;57.20;33.78;;;10.80;96.70;;;;;;4748511;30;20041;-77
2021/10/27 08:13:25;;;;;;;68.30;33.35;;;10.90;96.60;;;;;;4774659;30;20032;-77
2021/10/27 08:15:51;;;;;;;54.80;32.95;;;11.00;96.30;;;;;;4775983;30;20046;-77
2021/10/27 08:18:17;;;;;;;54.70;32.25;;;11.10;96.00;;;;;;4760191;30;20307;-77
2021/10/27 08:20:45;;;;;;;55.72;30.95;;;11.20;95.70;;;;;;4739798;30;20044;-77
2021/10/27 08:23:13;;;;;;;53.83;31.15;;;11.30;95.70;;;;;;4757395;30;20024;-77
2021/10/27 08:25:44;;;;;;;60.15;30.80;;;11.50;95.70;;;;;;4760719;30;20087;-77
2021/10/27 08:28:14;;;;;;;50.47;31.58;;;11.60;95.20;;;;;;4766325;30;20365;-76
2021/10/27 08:30:53;;;;;;;58.28;33.08;;;11.80;94.90;;;;;;4768983;30;20024;-76
2021/10/27 08:33:37;;;;;;;62.90;33.03;;;11.80;94.60;;;;;;4770323;30;20092;-76
2021/10/27 08:36:03;;;;;;;56.33;31.30;;;11.90;94.80;;;;;;4744963;30;20043;-76
2021/10/27 08:38:30;;;;;;;70.70;31.93;;;12.20;94.70;;;;;;4757016;30;20408;-76
2021/10/27 08:40:56;;;;;;;55.28;32.90;;;12.30;94.30;;;;;;4757060;30;20029;-76
2021/10/27 08:43:25;;;;;;;54.60;29.08;;;12.50;94.20;;;;;;4772205;30;20047;-76
2021/10/27 08:45:51;;;;;;;47.15;29.80;;;12.60;93.90;;;;;;4760634;30;20056;-76
2021/10/27 08:48:17;;;;;;;47.03;29.77;;;12.70;93.50;;;;;;4760923;30;20036;-76
2021/10/27 08:50:48;;;;;;;54.13;29.73;;;12.80;93.40;;;;;;4763202;30;20074;-77
2021/10/27 08:53:16;;;;;;;55.58;30.08;;;12.90;92.90;;;;;;4747971;30;20032;-77
2021/10/27 08:55:46;;;;;;;50.72;29.10;;;13.10;92.60;;;;;;4777444;29;20439;-76
2021/10/27 08:58:17;;;;;;;49.67;30.25;;;13.10;92.40;;;;;;4764222;30;20024;-77
2021/10/27 09:03:48;;;;;;;55.78;29.90;;;13.30;91.90;;;;;;4758633;30;20039;-78
2021/10/27 09:06:23;;;;;;;46.67;27.95;;;13.50;91.90;;;;;;4762928;30;20040;-77
2021/10/27 09:09:21;;;;;;;55.83;30.55;;;13.70;91.20;;;;;;4762772;30;20040;-77
2021/10/27 09:43:27;;;;;;;46.47;28.73;;;15.40;85.30;;;;;;4761475;30;20107;-78
2021/10/27 10:05:18;;;;;;;43.55;25.00;;;16.30;81.60;;;;;;4761141;30;20036;-77
2021/10/27 10:07:44;;;;;;;39.92;24.20;;;16.50;79.40;;;;;;4746404;30;20351;-78
2021/10/27 10:10:12;;;;;;;39.35;24.10;;;16.60;78.90;;;;;;4746506;30;20078;-78
2021/10/27 10:12:40;;;;;;;41.22;25.05;;;16.60;79.10;;;;;;4746254;30;20352;-77
2021/10/27 10:15:06;;;;;;;38.72;24.80;;;16.70;78.70;;;;;;4744514;30;20056;-80
2021/10/27 10:17:35;;;;;;;42.33;24.40;;;16.90;78.80;;;;;;4757977;30;20071;-78
2021/10/27 10:20:01;;;;;;;36.63;23.27;;;16.90;76.80;;;;;;4746623;30;20035;-78
2021/10/27 10:22:33;;;;;;;31.23;21.95;;;16.90;76.80;;;;;;4752122;30;20036;-80
2021/10/27 10:25:17;;;;;;;33.15;22.33;;;17.00;76.70;;;;;;4761399;30;20024;-80
2021/10/27 10:27:46;;;;;;;33.08;22.02;;;17.10;76.70;;;;;;4763064;30;20349;-80
2021/10/27 10:30:43;;;;;;;34.95;21.02;;;17.10;75.70;;;;;;4761562;30;20032;-80
2021/10/27 10:33:18;;;;;;;34.70;19.83;;;17.10;75.80;;;;;;4762633;30;20036;-80
2021/10/27 10:41:32;;;;;;;31.27;19.92;;;17.30;74.80;;;;;;4761358;30;20036;-78
2021/10/27 11:42:35;;;;;;;28.90;15.30;;;17.90;69.90;;;;;;4759720;30;20036;-77
2021/10/27 11:45:13;;;;;;;23.25;12.90;;;18.10;69.00;;;;;;4756782;30;20051;-77
2021/10/27 11:47:42;;;;;;;29.17;14.63;;;18.10;68.60;;;;;;4745002;30;20052;-76
2021/10/27 11:50:14;;;;;;;22.33;13.68;;;18.10;69.00;;;;;;4744834;30;20107;-78
2021/10/27 11:52:42;;;;;;;28.15;13.48;;;18.10;68.50;;;;;;4760386;30;20274;-78
2021/10/27 11:55:10;;;;;;;24.75;13.63;;;18.10;68.70;;;;;;4759985;30;20063;-78
2021/10/27 11:57:38;;;;;;;24.77;13.38;;;18.20;68.30;;;;;;4760382;30;20040;-78
2021/10/27 12:00:09;;;;;;;23.30;12.82;;;18.20;67.80;;;;;;4760190;30;20120;-78
2021/10/27 12:03:01;;;;;;;24.58;13.10;;;18.20;68.10;;;;;;4759956;30;20324;-79
2021/10/27 12:05:53;;;;;;;24.58;12.90;;;18.20;67.70;;;;;;4760255;30;20223;-79
2021/10/27 12:08:30;;;;;;;31.25;12.77;;;18.30;68.20;;;;;;4745047;30;20036;-79
2021/10/27 12:11:12;;;;;;;26.63;11.75;;;18.20;68.10;;;;;;4768305;29;20028;-79
2021/10/27 12:19:05;;;;;;;23.25;10.20;;;18.20;67.50;;;;;;4774253;30;20032;-79
2021/10/27 12:21:31;;;;;;;20.60;9.68;;;18.30;67.10;;;;;;4761223;30;20039;-79
2021/10/27 12:23:59;;;;;;;21.77;9.50;;;18.30;67.20;;;;;;4740276;30;20043;-79
2021/10/27 12:26:25;;;;;;;14.30;8.07;;;18.30;66.50;;;;;;4763615;30;20063;-80
2021/10/27 12:32:13;;;;;;;15.48;8.15;;;18.30;65.70;;;;;;4750813;30;20328;-80
2021/10/27 12:34:54;;;;;;;17.17;7.88;;;18.30;65.80;;;;;;4743029;30;20048;-79
2021/10/27 12:37:34;;;;;;;15.93;7.95;;;18.20;65.80;;;;;;4747789;30;20064;-79
2021/10/27 12:40:35;;;;;;;20.98;7.43;;;18.20;66.10;;;;;;4747780;30;20048;-79
2021/10/27 12:43:08;;;;;;;18.77;7.57;;;18.20;66.10;;;;;;4747861;30;20039;-79
2021/10/27 12:45:48;;;;;;;16.67;7.72;;;18.30;65.70;;;;;;4732940;30;20110;-80
2021/10/27 12:48:19;;;;;;;21.05;7.10;;;18.40;65.20;;;;;;4762553;30;20058;-79
2021/10/27 12:50:55;;;;;;;11.40;6.28;;;18.30;65.00;;;;;;4732697;30;20040;-80
2021/10/27 12:53:36;;;;;;;16.35;6.63;;;18.30;65.40;;;;;;4757050;30;20036;-80
2021/10/27 12:56:08;;;;;;;17.83;7.05;;;18.20;65.00;;;;;;4747624;30;20336;-80
2021/10/27 12:58:44;;;;;;;17.33;6.43;;;18.20;65.60;;;;;;4747471;30;20039;-79
2021/10/27 13:17:44;;;;;;;21.02;6.20;;;18.30;65.00;;;;;;4704820;30;20041;-79
2021/10/27 13:30:33;;;;;;;12.55;6.30;;;18.20;65.00;;;;;;4703856;30;20238;-79
2021/10/27 13:33:02;;;;;;;14.70;5.72;;;18.10;65.10;;;;;;4691702;30;20045;-79
2021/10/27 13:35:28;;;;;;;17.45;5.68;;;18.10;64.70;;;;;;4676616;30;20246;-79
2021/10/27 13:37:55;;;;;;;15.53;5.90;;;18.00;64.80;;;;;;4692478;30;20038;-79
2021/10/27 13:40:21;;;;;;;17.30;5.60;;;18.00;65.20;;;;;;4726927;30;20103;-80
2021/10/27 14:09:51;;;;;;;12.77;5.40;;;17.50;66.50;;;;;;4657101;30;20128;-80
2021/10/27 14:15:05;;;;;;;15.68;5.10;;;17.40;66.50;;;;;;4657131;30;20154;-79
2021/10/27 14:23:09;;;;;;;13.35;5.25;;;17.20;67.40;;;;;;4643653;30;20101;-80
2021/10/27 14:39:32;;;;;;;14.18;5.00;;;16.80;69.10;;;;;;4759605;30;20039;-80
2021/10/27 15:20:37;;;;;;;15.00;4.90;;;15.60;73.30;;;;;;4725123;30;20052;-78
2021/10/27 15:23:12;;;;;;;12.95;5.20;;;15.50;73.70;;;;;;4710407;30;20040;-78
2021/10/27 15:28:22;;;;;;;14.80;5.63;;;15.30;74.20;;;;;;4723349;30;20051;-78
2021/10/27 15:36:26;;;;;;;20.33;6.28;;;14.90;75.20;;;;;;4710348;30;20268;-79
2021/10/27 15:42:08;;;;;;;10.80;5.70;;;14.70;76.30;;;;;;4707047;30;20056;-78
2021/10/27 15:44:42;;;;;;;15.73;7.00;;;14.50;76.90;;;;;;4692733;30;20108;-78
2021/10/27 15:52:44;;;;;;;22.58;6.55;;;14.10;77.80;;;;;;4741837;30;20235;-78
2021/10/27 15:55:11;;;;;;;14.90;6.63;;;13.90;78.20;;;;;;4730352;30;20371;-78
2021/10/27 15:57:37;;;;;;;12.23;6.70;;;13.80;78.80;;;;;;4741840;30;20074;-78
2021/10/27 16:00:04;;;;;;;15.95;9.13;;;13.70;79.00;;;;;;4762092;30;20047;-78
2021/10/27 16:02:30;;;;;;;;;;;13.60;79.80;;;;;;4744460;30;20040;-78
2021/10/27 16:04:56;;;;;;;26.03;15.40;;;13.50;80.30;;;;;;4748849;30;19941;-78
2021/10/27 16:07:24;;;;;;;20.00;13.25;;;13.30;80.80;;;;;;4743338;30;20079;-78
2021/10/27 16:09:51;;;;;;;26.85;13.55;;;13.20;81.20;;;;;;4770473;30;20115;-79
2021/10/27 16:12:16;;;;;;;29.23;14.43;;;13.10;81.50;;;;;;4743519;30;20052;-79
2021/10/27 16:14:44;;;;;;;28.67;13.00;;;13.00;82.60;;;;;;4747846;30;20080;-78
2021/10/27 16:17:10;;;;;;;27.83;13.30;;;12.90;82.50;;;;;;4755745;30;20049;-79
2021/10/27 16:19:36;;;;;;;23.23;13.18;;;12.80;82.50;;;;;;4770660;30;20093;-79
2021/10/27 16:22:03;;;;;;;21.33;11.82;;;12.70;83.10;;;;;;4756780;30;20116;-79
2021/10/27 16:24:29;;;;;;;;;;;12.60;83.80;;;;;;4739456;30;20193;-78
2021/10/27 16:26:57;;;;;;;30.05;11.38;;;12.50;84.00;;;;;;4755916;30;20143;-77
2021/10/27 16:29:23;;;;;;;19.45;10.32;;;12.40;84.30;;;;;;4734608;30;20048;-79
2021/10/27 16:31:50;;;;;;;26.42;11.10;;;12.30;84.60;;;;;;4770013;30;20158;-78
2021/10/27 16:34:16;;;;;;;25.40;12.07;;;12.20;85.10;;;;;;4752803;30;20350;-78
2021/10/27 16:36:42;;;;;;;19.87;10.10;;;12.20;85.10;;;;;;4757659;30;20298;-78
2021/10/27 16:39:11;;;;;;;30.95;11.07;;;12.10;85.20;;;;;;4754087;30;20064;-78
2021/10/27 16:41:38;;;;;;;26.38;11.35;;;12.00;86.10;;;;;;4759961;30;20154;-78
2021/10/27 16:44:04;;;;;;;25.40;11.95;;;11.90;86.70;;;;;;4754652;30;20064;-78
2021/10/27 16:46:30;;;;;;;26.65;12.15;;;11.80;87.40;;;;;;4758159;30;20147;-78
2021/10/27 16:48:56;;;;;;;32.97;14.55;;;11.80;87.50;;;;;;4758152;30;20336;-78
2021/10/27 16:51:22;;;;;;;35.65;16.02;;;11.70;87.80;;;;;;4756604;30;20059;-78
2021/10/27 16:53:48;;;;;;;36.30;16.60;;;11.70;88.20;;;;;;4758242;30;20032;-79
2021/10/27 16:56:14;;;;;;;36.17;17.52;;;11.60;88.30;;;;;;4758606;30;20039;-79
2021/10/27 16:58:40;;;;;;;33.90;17.15;;;11.50;88.50;;;;;;4763656;30;20070;-78
2021/10/27 17:01:06;;;;;;;28.77;16.38;;;11.50;88.40;;;;;;4756768;30;20327;-79
2021/10/27 17:03:32;;;;;;;28.20;16.57;;;11.40;88.80;;;;;;4763107;30;20343;-78
2021/10/27 17:05:58;;;;;;;33.10;15.93;;;11.30;88.90;;;;;;4755552;30;20035;-78
2021/10/27 17:08:25;;;;;;;27.13;15.80;;;11.30;89.20;;;;;;4753864;30;20024;-78
2021/10/27 17:10:52;;;;;;;30.58;15.77;;;11.20;89.80;;;;;;4739152;30;20040;-78
2021/10/27 17:13:20;;;;;;;36.13;17.17;;;11.20;89.60;;;;;;4763020;30;20036;-79
2021/10/27 17:15:46;;;;;;;34.45;16.52;;;11.10;89.70;;;;;;4758148;30;20111;-78
2021/10/27 17:18:14;;;;;;;28.57;14.30;;;11.00;89.90;;;;;;4760960;30;20040;-79
2021/10/27 17:20:41;;;;;;;32.50;16.15;;;11.00;90.10;;;;;;4753145;30;20040;-78
2021/10/27 17:23:14;;;;;;;34.83;15.57;;;10.90;90.40;;;;;;4759350;30;20033;-78
2021/10/27 17:25:40;;;;;;;35.10;15.25;;;10.90;90.50;;;;;;4756125;30;20036;-78
2021/10/27 17:28:06;;;;;;;31.10;16.35;;;10.80;90.50;;;;;;4759566;30;20108;-78
2021/10/27 17:30:36;;;;;;;33.75;16.75;;;10.70;90.50;;;;;;4758324;30;20119;-78
2021/10/27 17:33:04;;;;;;;41.20;16.40;;;10.70;90.90;;;;;;4772194;30;20039;-78
2021/10/27 17:35:31;;;;;;;27.17;13.98;;;10.60;91.00;;;;;;4755768;30;20033;-78
2021/10/27 17:37:57;;;;;;;28.80;15.98;;;10.60;90.90;;;;;;4761424;30;20315;-78
2021/10/27 17:40:35;;;;;;;36.08;16.20;;;10.50;90.70;;;;;;4761460;30;20082;-78
2021/10/27 17:43:01;;;;;;;34.90;16.65;;;10.50;90.80;;;;;;4760956;30;20033;-78
2021/10/27 17:45:36;;;;;;;25.55;14.82;;;10.40;90.80;;;;;;4747556;30;20032;-78
2021/10/27 17:48:10;;;;;;;33.22;15.13;;;10.30;90.80;;;;;;4740052;30;20028;-78
2021/10/27 17:58:45;;;;;;;29.67;16.67;;;10.10;91.10;;;;;;4761213;30;20091;-78
2021/10/27 18:01:13;;;;;;;34.85;16.63;;;10.10;91.10;;;;;;4761149;30;20051;-78
2021/10/27 18:03:43;;;;;;;34.80;17.42;;;10.10;91.10;;;;;;4747004;30;20080;-78
2021/10/27 18:06:11;;;;;;;30.73;16.63;;;10.00;91.20;;;;;;4761798;30;20233;-78
2021/10/27 18:08:40;;;;;;;43.53;16.52;;;10.00;91.20;;;;;;4761497;30;20036;-78
2021/10/27 18:11:12;;;;;;;34.80;17.13;;;9.90;91.10;;;;;;4761879;30;20044;-78
2021/10/27 18:13:47;;;;;;;33.95;17.95;;;9.90;91.50;;;;;;4746751;30;20289;-79
2021/10/27 18:21:34;;;;;;;34.42;18.08;;;9.70;91.80;;;;;;4746643;30;20259;-79
2021/10/27 18:39:58;;;;;;;27.15;15.05;;;9.40;92.50;;;;;;4776363;30;20048;-79
2021/10/27 18:42:31;;;;;;;37.38;16.85;;;9.40;92.50;;;;;;4761550;30;20055;-79
2021/10/27 18:44:57;;;;;;;41.65;16.88;;;9.30;92.60;;;;;;4753083;30;20107;-79
2021/10/27 18:47:27;;;;;;;35.67;15.65;;;9.30;92.70;;;;;;4762299;30;20048;-79
2021/10/27 18:49:54;;;;;;;32.15;15.43;;;9.30;92.70;;;;;;4761096;30;20052;-78
2021/10/27 18:52:43;;;;;;;35.55;16.42;;;9.30;92.70;;;;;;4764778;30;20327;-78
2021/10/27 19:00:31;;;;;;;25.55;14.43;;;9.20;92.80;;;;;;4758254;30;20168;-78
2021/10/27 19:11:11;;;;;;;30.60;16.63;;;9.00;93.00;;;;;;4760892;30;20044;-78
2021/10/27 19:16:17;;;;;;;30.58;16.73;;;8.90;93.20;;;;;;4763200;30;20036;-78
2021/10/27 19:18:44;;;;;;;36.00;19.20;;;8.90;93.10;;;;;;4754245;30;20048;-78
2021/10/27 19:21:10;;;;;;;26.23;16.67;;;8.90;93.30;;;;;;4760626;30;20111;-78
2021/10/27 19:23:38;;;;;;;35.83;18.88;;;8.80;93.20;;;;;;4759391;30;20352;-78
2021/10/27 19:26:09;;;;;;;33.53;18.95;;;8.80;93.30;;;;;;4763825;30;20324;-79
2021/10/27 19:28:45;;;;;;;34.63;19.08;;;8.80;93.30;;;;;;4746153;30;20161;-79
